Pine Grove, Oregon
Current Conditions -  °F | °C
As of 4:14 PM on Sunday 25 Jan 2015 (Local Time) from KDLS Reporting Station
Moderate Fog Moderate Fog  
Wind Chill: 44°   Ceiling: 200
Heat Index: 47°   Visibility: 0.5mi
Dew Point: 45°   Wind: 6mph
Humidity: 93%   Direction: 80°E
Pressure: 30.13"   Gusts: NA
Location:  45.0212°N, 121.451°W
Report Text: KDLS 260014Z AUTO 08005KT 1/2SM FG OVC002 08/07 A3013 RMK AO2 T00830072
Loading
Personal Weather Stations






























Interactive Weather Map New forecast layout! Learn more

10-Day Weather Forecast

Advertisements
Track Severe Weather on mobile